createdAt,value
2018-02-09T00:00:56.386Z,95015.35
2018-02-09T00:03:59.661Z,95013.27
2018-02-09T00:07:03.704Z,95009.99
2018-02-09T00:10:06.980Z,95006.98
2018-02-09T00:13:11.018Z,95005.17
2018-02-09T00:16:14.503Z,95003.06
2018-02-09T00:19:17.824Z,94994.59
2018-02-09T00:22:21.096Z,95005.94
2018-02-09T00:25:24.404Z,95006.21
2018-02-09T00:28:27.680Z,95008.17
2018-02-09T00:31:31.714Z,95004.23
2018-02-09T00:34:36.136Z,95007.27
2018-02-09T00:37:39.436Z,95005.31
2018-02-09T00:40:42.706Z,95003.20
2018-02-09T00:43:46.747Z,95012.33
2018-02-09T00:46:50.035Z,95007.10
2018-02-09T00:49:54.074Z,95011.84
2018-02-09T00:52:58.075Z,95010.00
2018-02-09T00:56:01.366Z,95012.06
2018-02-09T00:59:04.679Z,95014.27
2018-02-09T01:02:07.956Z,95013.52
2018-02-09T01:05:11.337Z,95005.67
2018-02-09T01:08:14.962Z,95006.06
2018-02-09T01:11:18.281Z,95009.55
2018-02-09T01:14:21.996Z,95005.41
2018-02-09T01:17:25.276Z,95009.69
2018-02-09T01:20:28.671Z,95008.41
2018-02-09T01:23:32.004Z,95001.91
2018-02-09T01:26:35.282Z,95000.57
2018-02-09T01:29:38.562Z,94996.03
2018-02-09T01:32:41.821Z,94997.58
2018-02-09T01:35:45.112Z,94990.13
2018-02-09T01:38:48.406Z,94995.24
2018-02-09T01:41:51.668Z,94988.86
2018-02-09T01:44:54.956Z,94988.47
2018-02-09T01:47:58.252Z,94992.52
2018-02-09T01:51:01.553Z,94988.73
2018-02-09T01:54:04.851Z,94999.67
2018-02-09T01:57:08.972Z,94994.48
2018-02-09T02:00:12.252Z,94987.55
2018-02-09T02:03:16.289Z,94990.94
2018-02-09T02:06:19.590Z,94985.20
2018-02-09T02:09:22.866Z,94978.94
2018-02-09T02:12:26.184Z,94976.98
2018-02-09T02:15:29.468Z,94978.92
2018-02-09T02:18:32.735Z,94978.55
2018-02-09T02:21:36.013Z,94978.16
2018-02-09T02:24:40.600Z,94972.14
2018-02-09T02:27:43.881Z,94976.86
2018-02-09T02:30:47.924Z,94976.97
2018-02-09T02:33:51.206Z,94969.27
2018-02-09T02:36:54.513Z,94969.66
2018-02-09T02:39:57.793Z,94974.20
2018-02-09T02:43:01.836Z,94965.47
2018-02-09T02:46:05.211Z,94964.33
2018-02-09T02:49:09.290Z,94956.10
2018-02-09T02:52:12.696Z,94955.56
2018-02-09T02:55:15.956Z,94946.98
2018-02-09T02:58:19.252Z,94946.30
2018-02-09T03:01:22.781Z,94951.54
2018-02-09T03:04:26.132Z,94947.09
2018-02-09T03:07:29.419Z,94949.44
2018-02-09T03:10:33.452Z,94951.80
2018-02-09T03:13:36.737Z,94952.84
2018-02-09T03:16:40.029Z,94945.93
2018-02-09T03:19:43.338Z,94946.56
2018-02-09T03:22:46.645Z,94944.60
2018-02-09T03:25:49.927Z,94947.36
2018-02-09T03:28:53.230Z,94941.87
2018-02-09T03:31:56.543Z,94941.23
2018-02-09T03:34:59.822Z,94937.84
2018-02-09T03:38:03.866Z,94937.97
2018-02-09T03:41:07.145Z,94936.15
2018-02-09T03:44:10.421Z,94933.77
2018-02-09T03:47:14.467Z,94934.97
2018-02-09T03:50:17.768Z,94937.43
2018-02-09T03:53:21.057Z,94932.73
2018-02-09T03:56:24.401Z,94933.13
2018-02-09T03:59:27.806Z,94929.88
2018-02-09T04:02:31.104Z,94928.83
2018-02-09T04:05:34.435Z,94928.30
2018-02-09T04:08:38.497Z,94922.04
2018-02-09T04:11:41.776Z,94919.81
2018-02-09T04:14:45.058Z,94921.91
2018-02-09T04:17:48.381Z,94919.30
2018-02-09T04:20:51.660Z,94922.05
2018-02-09T04:23:54.951Z,94923.73
2018-02-09T04:26:58.238Z,94917.36
2018-02-09T04:30:02.283Z,94915.27
2018-02-09T04:33:05.560Z,94923.22
2018-02-09T04:36:08.877Z,94919.19
2018-02-09T04:39:12.278Z,94921.39
2018-02-09T04:42:15.564Z,94920.75
2018-02-09T04:45:18.925Z,94916.69
2018-02-09T04:48:23.808Z,94912.25
2018-02-09T04:51:27.134Z,94917.22
2018-02-09T04:54:30.464Z,94906.02
2018-02-09T04:57:33.743Z,94910.28
2018-02-09T05:00:37.102Z,94910.42
2018-02-09T05:03:40.589Z,94909.25
2018-02-09T05:06:44.599Z,94913.56
2018-02-09T05:09:47.893Z,94919.17
2018-02-09T05:12:51.255Z,94917.20
2018-02-09T05:15:56.033Z,94909.91
2018-02-09T05:18:59.327Z,94914.09
2018-02-09T05:22:02.661Z,94912.01
2018-02-09T05:25:05.940Z,94911.73
2018-02-09T05:28:09.222Z,94909.91
2018-02-09T05:31:12.509Z,94913.44
2018-02-09T05:34:15.861Z,94913.84
2018-02-09T05:37:19.138Z,94907.31
2018-02-09T05:40:22.416Z,94904.45
2018-02-09T05:43:25.724Z,94905.60
2018-02-09T05:46:29.533Z,94897.11
2018-02-09T05:49:32.818Z,94904.56
2018-02-09T05:52:36.265Z,94903.52
2018-02-09T05:55:39.691Z,94902.87
2018-02-09T05:58:43.766Z,94906.92
2018-02-09T06:01:47.337Z,94903.00
2018-02-09T06:04:50.632Z,94897.91
2018-02-09T06:07:53.937Z,94896.20
2018-02-09T06:10:57.236Z,94897.53
2018-02-09T06:14:00.534Z,94900.80
2018-02-09T06:17:03.976Z,94897.66
2018-02-09T06:20:07.260Z,94901.70
2018-02-09T06:23:11.321Z,94903.02
2018-02-09T06:26:15.441Z,94902.08
2018-02-09T06:29:19.960Z,94904.57
2018-02-09T06:32:24.032Z,94905.61
2018-02-09T06:35:27.316Z,94906.79
2018-02-09T06:38:30.610Z,94907.44
2018-02-09T06:41:33.901Z,94901.19
2018-02-09T06:44:37.210Z,94896.84
2018-02-09T06:47:40.524Z,94896.20
2018-02-09T06:50:43.800Z,94893.23
2018-02-09T06:53:47.110Z,94888.65
2018-02-09T06:56:51.175Z,94895.69
2018-02-09T06:59:55.236Z,94896.88
2018-02-09T07:02:58.598Z,94899.62
2018-02-09T07:06:02.727Z,94895.30
2018-02-09T07:09:06.001Z,94891.53
2018-02-09T07:12:09.327Z,94895.44
2018-02-09T07:15:12.652Z,94897.91
2018-02-09T07:18:15.934Z,94898.56
2018-02-09T07:21:19.247Z,94898.03
2018-02-09T07:24:22.579Z,94893.61
2018-02-09T07:27:26.741Z,94891.63
2018-02-09T07:30:30.048Z,94894.61
2018-02-09T07:33:33.333Z,94900.11
2018-02-09T07:36:36.626Z,94899.09
2018-02-09T07:39:39.898Z,94893.45
2018-02-09T07:42:43.297Z,94901.17
2018-02-09T07:45:46.592Z,94902.34
2018-02-09T07:48:50.641Z,94898.94
2018-02-09T07:51:53.904Z,94895.14
2018-02-09T07:54:57.968Z,94895.14
2018-02-09T07:58:01.362Z,94892.80
2018-02-09T08:01:04.760Z,94890.05
2018-02-09T08:04:08.043Z,94891.91
2018-02-09T08:07:11.314Z,94882.98
2018-02-09T08:10:15.352Z,94885.13
2018-02-09T08:13:18.769Z,94885.86
2018-02-09T08:16:22.049Z,94885.73
2018-02-09T08:19:26.187Z,94885.77
2018-02-09T08:22:29.552Z,94884.36
2018-02-09T08:25:33.595Z,94885.30
2018-02-09T08:28:36.860Z,94884.48
2018-02-09T08:31:40.996Z,94883.25
2018-02-09T08:34:44.336Z,94883.95
2018-02-09T08:37:47.629Z,94891.67
2018-02-09T08:40:50.909Z,94891.83
2018-02-09T08:43:55.418Z,94895.66
2018-02-09T08:46:58.697Z,94890.06
2018-02-09T08:50:02.744Z,94895.40
2018-02-09T08:53:06.094Z,94885.92
2018-02-09T08:56:09.578Z,94884.20
2018-02-09T08:59:12.919Z,94882.14
2018-02-09T09:02:16.976Z,94880.73
2018-02-09T09:05:20.244Z,94884.27
2018-02-09T09:08:23.532Z,94884.38
2018-02-09T09:11:27.592Z,94877.23
2018-02-09T09:14:30.895Z,94869.66
2018-02-09T09:17:34.165Z,94868.00
2018-02-09T09:20:37.464Z,94859.94
2018-02-09T09:23:40.732Z,94860.05
2018-02-09T09:26:44.776Z,94851.81
2018-02-09T09:29:48.062Z,94860.11
2018-02-09T09:32:51.333Z,94852.97
2018-02-09T09:35:55.393Z,94852.53
2018-02-09T09:38:58.692Z,94857.37
2018-02-09T09:42:01.970Z,94841.95
2018-02-09T09:45:05.248Z,94852.92
2018-02-09T09:48:09.300Z,94850.70
2018-02-09T09:51:12.572Z,94849.73
2018-02-09T09:54:15.857Z,94846.67
2018-02-09T09:57:19.902Z,94842.98
2018-02-09T10:00:23.164Z,94834.28
2018-02-09T10:03:28.341Z,94832.45
2018-02-09T10:06:31.680Z,94832.75
2018-02-09T10:09:34.940Z,94826.06
2018-02-09T10:12:38.238Z,94831.59
2018-02-09T10:15:41.882Z,94816.68
2018-02-09T10:18:45.153Z,94817.09
2018-02-09T10:21:48.449Z,94811.05
2018-02-09T10:24:51.731Z,94812.09
2018-02-09T10:27:55.013Z,94803.28
2018-02-09T10:30:58.312Z,94792.75
2018-02-09T10:34:01.585Z,94786.14
2018-02-09T10:37:04.860Z,94790.56
2018-02-09T10:40:08.170Z,94779.99
2018-02-09T10:43:12.225Z,94787.09
2018-02-09T10:46:15.738Z,94781.91
2018-02-09T10:49:19.060Z,94771.26
2018-02-09T10:52:22.348Z,94772.33
2018-02-09T10:55:25.646Z,94766.42
2018-02-09T10:58:29.740Z,94763.23
2018-02-09T11:01:36.805Z,94760.83
2018-02-09T11:04:40.851Z,94753.54
2018-02-09T11:07:44.155Z,94753.41
2018-02-09T11:10:49.357Z,94749.11
2018-02-09T11:13:53.430Z,94747.70
2018-02-09T11:16:56.736Z,94748.36
2018-02-09T11:20:00.033Z,94739.92
2018-02-09T11:23:03.353Z,94737.34
2018-02-09T11:26:06.644Z,94739.30
2018-02-09T11:29:10.681Z,94733.77
2018-02-09T11:32:13.952Z,94736.47
2018-02-09T11:35:17.245Z,94729.48
2018-02-09T11:38:20.544Z,94729.78
2018-02-09T11:41:23.829Z,94725.16
2018-02-09T11:44:27.196Z,94723.14
2018-02-09T11:47:30.492Z,94727.13
2018-02-09T11:50:33.790Z,94717.79
2018-02-09T11:53:37.058Z,94719.87
2018-02-09T11:56:41.134Z,94717.38
2018-02-09T11:59:44.417Z,94712.98
2018-02-09T12:02:47.730Z,94703.59
2018-02-09T12:05:51.544Z,94700.17
2018-02-09T12:08:54.828Z,94698.22
2018-02-09T12:11:58.111Z,94696.35
2018-02-09T12:15:01.393Z,94693.37
2018-02-09T12:18:04.671Z,94692.84
2018-02-09T12:21:08.704Z,94691.67
2018-02-09T12:24:11.993Z,94687.73
2018-02-09T12:27:15.289Z,94688.38
2018-02-09T12:30:18.556Z,94684.07
2018-02-09T12:33:21.996Z,94675.48
2018-02-09T12:36:25.300Z,94678.97
2018-02-09T12:39:29.450Z,94678.21
2018-02-09T12:42:32.732Z,94670.92
2018-02-09T12:45:36.008Z,94666.44
2018-02-09T12:48:39.279Z,94663.50
2018-02-09T12:51:43.335Z,94669.36
2018-02-09T12:54:46.623Z,94660.88
2018-02-09T12:57:49.910Z,94655.89
2018-02-09T13:00:53.205Z,94650.95
2018-02-09T13:03:56.470Z,94648.58
2018-02-09T13:06:59.742Z,94649.59
2018-02-09T13:10:03.439Z,94649.11
2018-02-09T13:13:11.475Z,94645.77
2018-02-09T13:16:14.754Z,94640.12
2018-02-09T13:19:18.024Z,94632.98
2018-02-09T13:22:39.368Z,94632.16
2018-02-09T13:25:42.768Z,94628.50
2018-02-09T13:28:58.745Z,94629.91
2018-02-09T13:32:03.776Z,94627.73
2018-02-09T13:35:07.076Z,94625.43
2018-02-09T13:38:10.375Z,94628.47
2018-02-09T13:41:13.649Z,94624.25
2018-02-09T13:44:17.688Z,94632.53
2018-02-09T13:47:21.006Z,94624.23
2018-02-09T13:50:24.284Z,94627.20
2018-02-09T13:53:27.579Z,94625.39
2018-02-09T13:56:31.824Z,94626.05
2018-02-09T13:59:35.084Z,94622.17
2018-02-09T14:02:38.365Z,94634.14
2018-02-09T14:05:42.411Z,94626.10
2018-02-09T14:08:45.696Z,94625.97
2018-02-09T14:11:48.989Z,94622.80
2018-02-09T14:14:52.256Z,94625.64
2018-02-09T14:17:56.315Z,94623.04
2018-02-09T14:20:59.600Z,94619.02
2018-02-09T14:24:02.861Z,94621.31
2018-02-09T14:27:06.908Z,94622.44
2018-02-09T14:30:10.164Z,94627.20
2018-02-09T14:33:13.469Z,94623.05
2018-02-09T14:36:16.741Z,94619.61
2018-02-09T14:39:20.814Z,94615.29
2018-02-09T14:42:24.090Z,94615.37
2018-02-09T14:45:28.141Z,94617.33
2018-02-09T14:48:31.429Z,94623.92
2018-02-09T14:51:35.213Z,94622.49
2018-02-09T14:54:39.258Z,94623.42
2018-02-09T14:57:42.632Z,94626.16
2018-02-09T15:00:47.190Z,94621.53
2018-02-09T15:03:50.484Z,94621.27
2018-02-09T15:06:53.846Z,94618.97
2018-02-09T15:09:57.902Z,94617.36
2018-02-09T15:13:01.214Z,94621.28
2018-02-09T15:16:04.489Z,94618.80
2018-02-09T15:19:07.772Z,94614.23
2018-02-09T15:22:11.052Z,94612.86
2018-02-09T15:25:15.102Z,94614.08
2018-02-09T15:28:18.489Z,94621.47
2018-02-09T15:31:21.800Z,94618.35
2018-02-09T15:34:25.098Z,94621.60
2018-02-09T15:37:28.431Z,94622.12
2018-02-09T15:40:31.708Z,94626.14
2018-02-09T15:43:35.306Z,94627.56
2018-02-09T15:46:38.964Z,94623.64
2018-02-09T15:50:13.302Z,94626.55
2018-02-09T15:53:18.616Z,94628.60
2018-02-09T15:56:22.846Z,94626.16
2018-02-09T15:59:26.343Z,94639.58
2018-02-09T16:02:30.659Z,94639.27
2018-02-09T16:05:34.164Z,94637.92
2018-02-09T16:08:37.668Z,94641.50
2018-02-09T16:11:41.412Z,94635.28
2018-02-09T16:14:44.911Z,94636.88
2018-02-09T16:17:48.606Z,94637.09
2018-02-09T16:20:52.059Z,94636.32
2018-02-09T16:23:56.360Z,94635.92
2018-02-09T16:26:59.923Z,94633.49
2018-02-09T16:30:03.552Z,94636.50
2018-02-09T16:33:06.994Z,94630.97
2018-02-09T16:36:10.359Z,94631.80
2018-02-09T16:39:13.817Z,94631.53
2018-02-09T16:42:17.249Z,94634.33
2018-02-09T16:45:20.705Z,94631.80
2018-02-09T16:48:24.067Z,94630.75
2018-02-09T16:51:27.406Z,94625.49
2018-02-09T16:54:30.704Z,94627.36
2018-02-09T16:57:34.015Z,94635.02
2018-02-09T17:00:37.285Z,94643.33
2018-02-09T17:03:40.581Z,94639.76
2018-02-09T17:06:43.863Z,94645.28
2018-02-09T17:09:47.152Z,94643.16
2018-02-09T17:12:50.575Z,94639.72
2018-02-09T17:15:53.952Z,94644.68
2018-02-09T17:18:57.318Z,94650.16
2018-02-09T17:22:00.585Z,94648.41
2018-02-09T17:25:03.912Z,94649.68
2018-02-09T17:28:07.960Z,94650.59
2018-02-09T17:31:11.248Z,94649.59
2018-02-09T17:34:14.585Z,94649.55
2018-02-09T17:37:17.905Z,94646.84
2018-02-09T17:40:21.241Z,94654.30
2018-02-09T17:43:24.558Z,94651.69
2018-02-09T17:46:27.844Z,94653.73
2018-02-09T17:49:31.197Z,94654.16
2018-02-09T17:52:34.516Z,94653.03
2018-02-09T17:55:37.939Z,94651.69
2018-02-09T17:58:41.211Z,94644.81
2018-02-09T18:01:45.536Z,94651.33
2018-02-09T18:04:49.564Z,94642.76
2018-02-09T18:07:53.620Z,94652.99
2018-02-09T18:10:56.899Z,94649.67
2018-02-09T18:14:00.225Z,94653.89
2018-02-09T18:17:03.519Z,94647.92
2018-02-09T18:20:06.836Z,94651.16
2018-02-09T18:23:10.104Z,94653.98
2018-02-09T18:26:13.587Z,94643.41
2018-02-09T18:29:16.855Z,94647.55
2018-02-09T18:32:21.420Z,94651.59
2018-02-09T18:35:24.693Z,94643.41
2018-02-09T18:38:29.669Z,94646.67
2018-02-09T18:41:33.089Z,94651.55
2018-02-09T18:44:36.383Z,94658.81
2018-02-09T18:47:40.013Z,94657.32
2018-02-09T18:50:43.323Z,94660.88
2018-02-09T18:53:47.640Z,94668.86
2018-02-09T18:56:51.676Z,94677.83
2018-02-09T18:59:54.961Z,94679.80
2018-02-09T19:02:59.011Z,94678.44
2018-02-09T19:06:02.284Z,94675.72
2018-02-09T19:09:06.460Z,94677.50
2018-02-09T19:12:09.756Z,94677.44
2018-02-09T19:15:13.049Z,94672.06
2018-02-09T19:18:16.320Z,94676.92
2018-02-09T19:21:19.605Z,94675.22
2018-02-09T19:24:22.882Z,94667.43
2018-02-09T19:27:27.047Z,94676.27
2018-02-09T19:30:30.305Z,94678.58
2018-02-09T19:33:33.617Z,94671.78
2018-02-09T19:36:36.903Z,94676.19
2018-02-09T19:39:40.192Z,94681.57
2018-02-09T19:42:44.237Z,94679.58
2018-02-09T19:45:47.545Z,94685.61
2018-02-09T19:48:50.816Z,94684.42
2018-02-09T19:51:54.149Z,94686.19
2018-02-09T19:54:57.428Z,94683.27
2018-02-09T19:58:00.880Z,94684.80
2018-02-09T20:01:04.181Z,94689.08
2018-02-09T20:04:07.482Z,94684.23
2018-02-09T20:07:11.562Z,94685.17
2018-02-09T20:10:14.912Z,94684.45
2018-02-09T20:13:18.261Z,94685.59
2018-02-09T20:16:21.597Z,94685.95
2018-02-09T20:19:25.684Z,94696.20
2018-02-09T20:22:29.000Z,94691.95
2018-02-09T20:25:32.252Z,94701.19
2018-02-09T20:28:35.541Z,94703.66
2018-02-09T20:31:38.974Z,94703.02
2018-02-09T20:34:42.307Z,94707.27
2018-02-09T20:37:46.422Z,94703.08
2018-02-09T20:40:50.484Z,94703.14
2018-02-09T20:43:53.854Z,94705.20
2018-02-09T20:46:57.263Z,94708.73
2018-02-09T20:50:00.654Z,94709.16
2018-02-09T20:53:03.945Z,94705.36
2018-02-09T20:56:08.065Z,94700.92
2018-02-09T20:59:12.109Z,94705.08
2018-02-09T21:02:15.400Z,94710.00
2018-02-09T21:05:18.837Z,94707.69
2018-02-09T21:08:22.181Z,94719.05
2018-02-09T21:11:25.489Z,94715.25
2018-02-09T21:14:28.794Z,94715.88
2018-02-09T21:17:32.090Z,94722.52
2018-02-09T21:21:02.379Z,94717.34
2018-02-09T21:24:08.702Z,94722.67
2018-02-09T21:27:12.141Z,94719.28
2018-02-09T21:30:15.477Z,94718.89
2018-02-09T21:33:19.594Z,94722.02
2018-02-09T21:36:22.896Z,94720.88
2018-02-09T21:39:26.200Z,94719.08
2018-02-09T21:42:29.493Z,94725.31
2018-02-09T21:45:32.791Z,94720.10
2018-02-09T21:48:36.085Z,94723.36
2018-02-09T21:51:39.380Z,94722.06
2018-02-09T21:54:42.670Z,94725.44
2018-02-09T21:57:46.724Z,94721.40
2018-02-09T22:00:50.004Z,94723.35
2018-02-09T22:03:53.283Z,94718.78
2018-02-09T22:06:56.583Z,94725.16
2018-02-09T22:09:59.876Z,94723.07
2018-02-09T22:13:03.165Z,94726.42
2018-02-09T22:16:07.192Z,94728.22
2018-02-09T22:19:10.527Z,94728.31
2018-02-09T22:22:13.940Z,94727.91
2018-02-09T22:25:17.212Z,94730.03
2018-02-09T22:28:20.530Z,94724.64
2018-02-09T22:31:23.795Z,94723.84
2018-02-09T22:34:27.181Z,94720.84
2018-02-09T22:37:31.453Z,94721.09
2018-02-09T22:40:35.616Z,94727.12
2018-02-09T22:43:39.017Z,94723.61
2018-02-09T22:46:42.456Z,94729.06
2018-02-09T22:49:45.787Z,94725.80
2018-02-09T22:52:49.949Z,94731.28
2018-02-09T22:55:53.224Z,94727.50
2018-02-09T22:58:57.249Z,94729.19
2018-02-09T23:02:01.288Z,94735.16
2018-02-09T23:05:04.601Z,94731.65
2018-02-09T23:08:07.878Z,94736.86
2018-02-09T23:11:11.153Z,94737.10
2018-02-09T23:14:15.194Z,94740.20
2018-02-09T23:17:18.467Z,94745.04
2018-02-09T23:20:22.512Z,94742.17
2018-02-09T23:23:25.870Z,94737.38
2018-02-09T23:26:29.985Z,94747.95
2018-02-09T23:29:33.299Z,94747.43
2018-02-09T23:32:37.396Z,94745.60
2018-02-09T23:35:40.677Z,94740.59
2018-02-09T23:38:43.977Z,94742.30
2018-02-09T23:41:47.267Z,94742.91
2018-02-09T23:44:50.628Z,94745.25
2018-02-09T23:47:53.925Z,94753.31
2018-02-09T23:50:58.454Z,94750.19
2018-02-09T23:54:01.748Z,94741.63
2018-02-09T23:57:05.063Z,94745.45
